sensor_id;sensor_type;location;lat;lon;timestamp;P1;durP1;ratioP1;P2;durP2;ratioP2
68985;SDS011;56035;37.534;-122.308;2023-03-01T00:04:25;15.90;;;2.40;;
68985;SDS011;56035;37.534;-122.308;2023-03-01T00:06:53;9.90;;;1.50;;
68985;SDS011;56035;37.534;-122.308;2023-03-01T00:09:19;10.55;;;2.22;;
68985;SDS011;56035;37.534;-122.308;2023-03-01T00:11:45;13.35;;;1.60;;
68985;SDS011;56035;37.534;-122.308;2023-03-01T00:14:12;14.52;;;2.40;;
68985;SDS011;56035;37.534;-122.308;2023-03-01T00:16:39;11.13;;;1.88;;
68985;SDS011;56035;37.534;-122.308;2023-03-01T00:19:07;18.27;;;2.33;;
68985;SDS011;56035;37.534;-122.308;2023-03-01T00:21:37;12.00;;;2.20;;
68985;SDS011;56035;37.534;-122.308;2023-03-01T00:24:04;12.98;;;2.10;;
68985;SDS011;56035;37.534;-122.308;2023-03-01T00:26:30;12.85;;;2.15;;
68985;SDS011;56035;37.534;-122.308;2023-03-01T00:28:57;13.25;;;1.85;;
68985;SDS011;56035;37.534;-122.308;2023-03-01T00:31:25;10.47;;;2.40;;
68985;SDS011;56035;37.534;-122.308;2023-03-01T00:33:58;9.93;;;1.63;;
68985;SDS011;56035;37.534;-122.308;2023-03-01T00:36:28;12.17;;;1.90;;
68985;SDS011;56035;37.534;-122.308;2023-03-01T00:38:56;7.80;;;1.20;;
68985;SDS011;56035;37.534;-122.308;2023-03-01T00:41:22;3.50;;;1.15;;
68985;SDS011;56035;37.534;-122.308;2023-03-01T00:43:52;7.47;;;1.03;;
68985;SDS011;56035;37.534;-122.308;2023-03-01T00:46:19;3.83;;;0.90;;
68985;SDS011;56035;37.534;-122.308;2023-03-01T00:48:47;6.47;;;1.00;;
68985;SDS011;56035;37.534;-122.308;2023-03-01T00:51:15;7.32;;;1.08;;
68985;SDS011;56035;37.534;-122.308;2023-03-01T00:53:50;5.93;;;0.90;;
68985;SDS011;56035;37.534;-122.308;2023-03-01T00:56:18;6.33;;;0.93;;
68985;SDS011;56035;37.534;-122.308;2023-03-01T00:58:44;6.65;;;0.90;;
68985;SDS011;56035;37.534;-122.308;2023-03-01T01:01:12;7.50;;;1.25;;
68985;SDS011;56035;37.534;-122.308;2023-03-01T01:03:59;10.00;;;1.60;;
68985;SDS011;56035;37.534;-122.308;2023-03-01T01:06:29;9.70;;;1.83;;
68985;SDS011;56035;37.534;-122.308;2023-03-01T01:08:58;6.80;;;1.07;;
68985;SDS011;56035;37.534;-122.308;2023-03-01T01:11:26;11.27;;;1.40;;
68985;SDS011;56035;37.534;-122.308;2023-03-01T01:13:54;11.87;;;1.60;;
68985;SDS011;56035;37.534;-122.308;2023-03-01T01:16:22;8.83;;;1.40;;
68985;SDS011;56035;37.534;-122.308;2023-03-01T01:18:50;9.80;;;1.87;;
68985;SDS011;56035;37.534;-122.308;2023-03-01T01:21:19;8.07;;;1.03;;
68985;SDS011;56035;37.534;-122.308;2023-03-01T01:23:48;11.20;;;2.57;;
68985;SDS011;56035;37.534;-122.308;2023-03-01T01:26:16;8.60;;;1.07;;
68985;SDS011;56035;37.534;-122.308;2023-03-01T01:28:43;8.83;;;1.13;;
68985;SDS011;56035;37.534;-122.308;2023-03-01T01:31:09;2.63;;;0.60;;
68985;SDS011;56035;37.534;-122.308;2023-03-01T01:33:35;5.05;;;0.60;;
68985;SDS011;56035;37.534;-122.308;2023-03-01T01:36:03;6.17;;;0.80;;
68985;SDS011;56035;37.534;-122.308;2023-03-01T01:38:30;4.17;;;0.80;;
68985;SDS011;56035;37.534;-122.308;2023-03-01T01:40:57;2.45;;;0.82;;
68985;SDS011;56035;37.534;-122.308;2023-03-01T01:43:24;3.58;;;0.82;;
68985;SDS011;56035;37.534;-122.308;2023-03-01T01:45:56;6.13;;;0.63;;
68985;SDS011;56035;37.534;-122.308;2023-03-01T01:48:28;6.90;;;1.30;;
68985;SDS011;56035;37.534;-122.308;2023-03-01T01:51:05;6.10;;;0.70;;
68985;SDS011;56035;37.534;-122.308;2023-03-01T01:53:38;5.93;;;1.07;;
68985;SDS011;56035;37.534;-122.308;2023-03-01T01:56:08;5.30;;;0.77;;
68985;SDS011;56035;37.534;-122.308;2023-03-01T01:58:38;5.07;;;0.73;;
68985;SDS011;56035;37.534;-122.308;2023-03-01T02:01:07;3.73;;;0.90;;
68985;SDS011;56035;37.534;-122.308;2023-03-01T02:03:33;7.32;;;1.00;;
68985;SDS011;56035;37.534;-122.308;2023-03-01T02:06:17;7.90;;;1.03;;
68985;SDS011;56035;37.534;-122.308;2023-03-01T02:09:07;7.77;;;1.80;;
68985;SDS011;56035;37.534;-122.308;2023-03-01T02:11:37;8.07;;;1.10;;
68985;SDS011;56035;37.534;-122.308;2023-03-01T02:14:03;4.28;;;0.93;;
68985;SDS011;56035;37.534;-122.308;2023-03-01T02:16:30;4.90;;;0.77;;
68985;SDS011;56035;37.534;-122.308;2023-03-01T02:18:57;4.38;;;0.73;;
68985;SDS011;56035;37.534;-122.308;2023-03-01T02:24:53;5.37;;;1.00;;
68985;SDS011;56035;37.534;-122.308;2023-03-01T02:27:13;5.43;;;1.00;;
68985;SDS011;56035;37.534;-122.308;2023-03-01T02:29:41;6.90;;;1.40;;
68985;SDS011;56035;37.534;-122.308;2023-03-01T02:32:09;7.07;;;1.30;;
68985;SDS011;56035;37.534;-122.308;2023-03-01T02:34:37;5.13;;;1.00;;
68985;SDS011;56035;37.534;-122.308;2023-03-01T02:37:07;5.38;;;0.90;;
68985;SDS011;56035;37.534;-122.308;2023-03-01T02:39:39;4.83;;;1.00;;
68985;SDS011;56035;37.534;-122.308;2023-03-01T02:42:13;5.27;;;1.00;;
68985;SDS011;56035;37.534;-122.308;2023-03-01T02:44:42;5.73;;;1.00;;
68985;SDS011;56035;37.534;-122.308;2023-03-01T02:47:08;5.50;;;0.90;;
68985;SDS011;56035;37.534;-122.308;2023-03-01T02:49:35;5.10;;;0.80;;
68985;SDS011;56035;37.534;-122.308;2023-03-01T02:55:09;5.43;;;1.40;;
68985;SDS011;56035;37.534;-122.308;2023-03-01T02:57:40;6.37;;;1.30;;
68985;SDS011;56035;37.534;-122.308;2023-03-01T03:00:09;4.27;;;1.10;;
68985;SDS011;56035;37.534;-122.308;2023-03-01T03:02:44;6.13;;;1.00;;
68985;SDS011;56035;37.534;-122.308;2023-03-01T03:05:13;4.57;;;1.30;;
68985;SDS011;56035;37.534;-122.308;2023-03-01T03:07:43;4.63;;;0.87;;
68985;SDS011;56035;37.534;-122.308;2023-03-01T03:10:12;5.87;;;1.27;;
68985;SDS011;56035;37.534;-122.308;2023-03-01T03:12:41;6.90;;;1.30;;
68985;SDS011;56035;37.534;-122.308;2023-03-01T03:15:08;7.30;;;1.83;;
68985;SDS011;56035;37.534;-122.308;2023-03-01T03:17:38;6.80;;;1.13;;
68985;SDS011;56035;37.534;-122.308;2023-03-01T03:20:06;5.17;;;0.90;;
68985;SDS011;56035;37.534;-122.308;2023-03-01T03:22:37;5.10;;;1.10;;
68985;SDS011;56035;37.534;-122.308;2023-03-01T03:25:05;8.93;;;2.30;;
68985;SDS011;56035;37.534;-122.308;2023-03-01T03:27:36;5.10;;;0.80;;
68985;SDS011;56035;37.534;-122.308;2023-03-01T03:30:07;7.10;;;1.33;;
68985;SDS011;56035;37.534;-122.308;2023-03-01T03:32:41;3.03;;;0.70;;
68985;SDS011;56035;37.534;-122.308;2023-03-01T03:35:27;10.17;;;1.00;;
68985;SDS011;56035;37.534;-122.308;2023-03-01T03:38:01;6.53;;;1.00;;
68985;SDS011;56035;37.534;-122.308;2023-03-01T03:40:40;2.30;;;0.60;;
68985;SDS011;56035;37.534;-122.308;2023-03-01T03:43:13;7.20;;;0.95;;
68985;SDS011;56035;37.534;-122.308;2023-03-01T03:45:43;6.00;;;0.50;;
68985;SDS011;56035;37.534;-122.308;2023-03-01T03:48:10;5.43;;;0.80;;
68985;SDS011;56035;37.534;-122.308;2023-03-01T03:50:37;7.22;;;0.85;;
68985;SDS011;56035;37.534;-122.308;2023-03-01T03:53:11;4.97;;;0.60;;
68985;SDS011;56035;37.534;-122.308;2023-03-01T03:55:38;4.70;;;1.03;;
68985;SDS011;56035;37.534;-122.308;2023-03-01T03:58:05;3.58;;;0.70;;
68985;SDS011;56035;37.534;-122.308;2023-03-01T04:00:38;4.50;;;0.70;;
68985;SDS011;56035;37.534;-122.308;2023-03-01T04:03:07;8.33;;;1.37;;
68985;SDS011;56035;37.534;-122.308;2023-03-01T04:05:35;5.43;;;1.10;;
68985;SDS011;56035;37.534;-122.308;2023-03-01T04:08:02;8.00;;;1.10;;
68985;SDS011;56035;37.534;-122.308;2023-03-01T04:10:29;5.07;;;1.25;;
68985;SDS011;56035;37.534;-122.308;2023-03-01T04:12:57;5.53;;;1.10;;
68985;SDS011;56035;37.534;-122.308;2023-03-01T04:15:24;4.07;;;0.75;;
68985;SDS011;56035;37.534;-122.308;2023-03-01T04:17:53;2.60;;;0.80;;
68985;SDS011;56035;37.534;-122.308;2023-03-01T04:20:22;4.00;;;0.83;;
68985;SDS011;56035;37.534;-122.308;2023-03-01T04:22:51;6.20;;;0.83;;
68985;SDS011;56035;37.534;-122.308;2023-03-01T04:25:18;8.10;;;0.87;;
68985;SDS011;56035;37.534;-122.308;2023-03-01T04:27:45;3.97;;;0.75;;
68985;SDS011;56035;37.534;-122.308;2023-03-01T04:30:11;4.80;;;0.80;;
68985;SDS011;56035;37.534;-122.308;2023-03-01T04:32:38;7.38;;;1.00;;
68985;SDS011;56035;37.534;-122.308;2023-03-01T04:35:04;5.20;;;1.05;;
68985;SDS011;56035;37.534;-122.308;2023-03-01T04:37:30;7.65;;;1.10;;
68985;SDS011;56035;37.534;-122.308;2023-03-01T04:39:57;5.82;;;0.90;;
68985;SDS011;56035;37.534;-122.308;2023-03-01T04:42:23;5.65;;;0.93;;
68985;SDS011;56035;37.534;-122.308;2023-03-01T04:44:49;7.10;;;0.90;;
68985;SDS011;56035;37.534;-122.308;2023-03-01T04:47:18;9.30;;;1.70;;
68985;SDS011;56035;37.534;-122.308;2023-03-01T04:49:44;5.00;;;1.20;;
68985;SDS011;56035;37.534;-122.308;2023-03-01T04:52:11;7.50;;;1.08;;
68985;SDS011;56035;37.534;-122.308;2023-03-01T04:54:37;6.15;;;1.20;;
68985;SDS011;56035;37.534;-122.308;2023-03-01T04:57:03;5.97;;;1.50;;
68985;SDS011;56035;37.534;-122.308;2023-03-01T04:59:29;4.13;;;1.48;;
68985;SDS011;56035;37.534;-122.308;2023-03-01T05:01:56;10.85;;;1.80;;
68985;SDS011;56035;37.534;-122.308;2023-03-01T05:04:23;6.78;;;2.15;;
68985;SDS011;56035;37.534;-122.308;2023-03-01T05:06:50;6.27;;;1.27;;
68985;SDS011;56035;37.534;-122.308;2023-03-01T05:09:16;6.95;;;1.35;;
68985;SDS011;56035;37.534;-122.308;2023-03-01T05:11:42;7.35;;;2.20;;
68985;SDS011;56035;37.534;-122.308;2023-03-01T05:14:09;9.93;;;2.25;;
68985;SDS011;56035;37.534;-122.308;2023-03-01T05:16:35;5.20;;;1.27;;
68985;SDS011;56035;37.534;-122.308;2023-03-01T05:19:02;3.67;;;1.20;;
68985;SDS011;56035;37.534;-122.308;2023-03-01T05:21:37;5.77;;;1.10;;
68985;SDS011;56035;37.534;-122.308;2023-03-01T05:24:24;4.90;;;1.20;;
68985;SDS011;56035;37.534;-122.308;2023-03-01T05:26:50;6.35;;;1.40;;
68985;SDS011;56035;37.534;-122.308;2023-03-01T05:29:17;8.52;;;1.90;;
68985;SDS011;56035;37.534;-122.308;2023-03-01T05:31:53;4.30;;;1.13;;
68985;SDS011;56035;37.534;-122.308;2023-03-01T05:34:24;9.13;;;2.13;;
68985;SDS011;56035;37.534;-122.308;2023-03-01T05:36:52;7.67;;;1.73;;
68985;SDS011;56035;37.534;-122.308;2023-03-01T05:39:23;6.13;;;1.30;;
68985;SDS011;56035;37.534;-122.308;2023-03-01T05:41:57;9.77;;;1.97;;
68985;SDS011;56035;37.534;-122.308;2023-03-01T05:44:25;7.20;;;1.90;;
68985;SDS011;56035;37.534;-122.308;2023-03-01T05:46:52;3.25;;;1.25;;
68985;SDS011;56035;37.534;-122.308;2023-03-01T05:49:18;4.93;;;1.83;;
68985;SDS011;56035;37.534;-122.308;2023-03-01T05:51:47;5.53;;;1.40;;
68985;SDS011;56035;37.534;-122.308;2023-03-01T05:54:15;6.70;;;1.27;;
68985;SDS011;56035;37.534;-122.308;2023-03-01T05:56:42;4.60;;;1.95;;
68985;SDS011;56035;37.534;-122.308;2023-03-01T05:59:09;9.37;;;2.00;;
68985;SDS011;56035;37.534;-122.308;2023-03-01T06:01:36;6.78;;;1.67;;
68985;SDS011;56035;37.534;-122.308;2023-03-01T06:06:30;6.73;;;1.57;;
68985;SDS011;56035;37.534;-122.308;2023-03-01T06:08:59;7.53;;;1.63;;
68985;SDS011;56035;37.534;-122.308;2023-03-01T06:11:25;8.55;;;2.10;;
68985;SDS011;56035;37.534;-122.308;2023-03-01T06:13:52;11.55;;;1.80;;
68985;SDS011;56035;37.534;-122.308;2023-03-01T06:16:18;8.88;;;1.50;;
68985;SDS011;56035;37.534;-122.308;2023-03-01T06:18:44;5.43;;;1.25;;
68985;SDS011;56035;37.534;-122.308;2023-03-01T06:21:10;5.93;;;1.20;;
68985;SDS011;56035;37.534;-122.308;2023-03-01T06:23:36;5.53;;;1.25;;
68985;SDS011;56035;37.534;-122.308;2023-03-01T06:26:06;7.93;;;1.25;;
68985;SDS011;56035;37.534;-122.308;2023-03-01T06:28:34;7.33;;;1.80;;
68985;SDS011;56035;37.534;-122.308;2023-03-01T06:31:01;9.77;;;1.50;;
68985;SDS011;56035;37.534;-122.308;2023-03-01T06:33:27;8.82;;;1.33;;
68985;SDS011;56035;37.534;-122.308;2023-03-01T06:35:54;6.97;;;1.35;;
68985;SDS011;56035;37.534;-122.308;2023-03-01T06:38:22;5.13;;;1.30;;
68985;SDS011;56035;37.534;-122.308;2023-03-01T06:40:52;7.57;;;1.63;;
68985;SDS011;56035;37.534;-122.308;2023-03-01T06:43:20;10.63;;;3.20;;
68985;SDS011;56035;37.534;-122.308;2023-03-01T06:45:46;11.60;;;4.22;;
68985;SDS011;56035;37.534;-122.308;2023-03-01T06:48:13;10.15;;;3.45;;
68985;SDS011;56035;37.534;-122.308;2023-03-01T06:50:39;8.65;;;2.50;;
68985;SDS011;56035;37.534;-122.308;2023-03-01T06:53:05;9.05;;;2.10;;
68985;SDS011;56035;37.534;-122.308;2023-03-01T06:55:31;7.25;;;1.63;;
68985;SDS011;56035;37.534;-122.308;2023-03-01T06:57:59;10.73;;;2.00;;
68985;SDS011;56035;37.534;-122.308;2023-03-01T07:00:26;12.47;;;1.97;;
68985;SDS011;56035;37.534;-122.308;2023-03-01T07:05:19;8.27;;;3.10;;
68985;SDS011;56035;37.534;-122.308;2023-03-01T07:07:46;11.10;;;4.18;;
68985;SDS011;56035;37.534;-122.308;2023-03-01T07:10:12;13.80;;;3.60;;
68985;SDS011;56035;37.534;-122.308;2023-03-01T07:12:38;10.60;;;1.33;;
68985;SDS011;56035;37.534;-122.308;2023-03-01T07:15:06;12.70;;;1.50;;
68985;SDS011;56035;37.534;-122.308;2023-03-01T07:17:34;10.47;;;2.63;;
68985;SDS011;56035;37.534;-122.308;2023-03-01T07:20:00;8.40;;;2.40;;
68985;SDS011;56035;37.534;-122.308;2023-03-01T07:22:27;6.63;;;2.90;;
68985;SDS011;56035;37.534;-122.308;2023-03-01T07:24:53;7.68;;;3.47;;
68985;SDS011;56035;37.534;-122.308;2023-03-01T07:27:19;13.70;;;5.63;;
68985;SDS011;56035;37.534;-122.308;2023-03-01T07:29:45;16.65;;;7.95;;
68985;SDS011;56035;37.534;-122.308;2023-03-01T07:32:12;16.58;;;5.38;;
68985;SDS011;56035;37.534;-122.308;2023-03-01T07:34:38;21.73;;;10.10;;
68985;SDS011;56035;37.534;-122.308;2023-03-01T07:37:04;19.67;;;7.55;;
68985;SDS011;56035;37.534;-122.308;2023-03-01T07:39:30;15.55;;;5.90;;
68985;SDS011;56035;37.534;-122.308;2023-03-01T07:41:56;14.02;;;4.60;;
68985;SDS011;56035;37.534;-122.308;2023-03-01T07:44:23;11.90;;;3.80;;
68985;SDS011;56035;37.534;-122.308;2023-03-01T07:46:49;15.73;;;3.50;;
68985;SDS011;56035;37.534;-122.308;2023-03-01T07:49:17;12.30;;;3.67;;
68985;SDS011;56035;37.534;-122.308;2023-03-01T07:51:43;19.38;;;3.88;;
68985;SDS011;56035;37.534;-122.308;2023-03-01T07:54:10;9.40;;;1.63;;
68985;SDS011;56035;37.534;-122.308;2023-03-01T07:56:36;7.78;;;2.47;;
68985;SDS011;56035;37.534;-122.308;2023-03-01T07:59:02;7.10;;;1.80;;
68985;SDS011;56035;37.534;-122.308;2023-03-01T08:01:28;9.65;;;1.70;;
68985;SDS011;56035;37.534;-122.308;2023-03-01T08:03:54;5.50;;;1.20;;
68985;SDS011;56035;37.534;-122.308;2023-03-01T08:06:20;7.72;;;2.10;;
68985;SDS011;56035;37.534;-122.308;2023-03-01T08:08:47;4.22;;;1.08;;
68985;SDS011;56035;37.534;-122.308;2023-03-01T08:11:13;11.18;;;2.90;;
68985;SDS011;56035;37.534;-122.308;2023-03-01T08:16:07;5.40;;;1.40;;
68985;SDS011;56035;37.534;-122.308;2023-03-01T08:18:36;12.63;;;3.57;;
68985;SDS011;56035;37.534;-122.308;2023-03-01T08:21:06;9.85;;;3.10;;
68985;SDS011;56035;37.534;-122.308;2023-03-01T08:23:34;12.77;;;3.10;;
68985;SDS011;56035;37.534;-122.308;2023-03-01T08:26:11;8.10;;;1.85;;
68985;SDS011;56035;37.534;-122.308;2023-03-01T08:28:39;11.63;;;2.00;;
68985;SDS011;56035;37.534;-122.308;2023-03-01T08:31:13;12.30;;;2.30;;
68985;SDS011;56035;37.534;-122.308;2023-03-01T08:33:39;12.83;;;2.13;;
68985;SDS011;56035;37.534;-122.308;2023-03-01T08:36:06;10.15;;;2.17;;
68985;SDS011;56035;37.534;-122.308;2023-03-01T08:38:33;9.35;;;2.15;;
68985;SDS011;56035;37.534;-122.308;2023-03-01T08:41:01;8.93;;;2.03;;
68985;SDS011;56035;37.534;-122.308;2023-03-01T08:43:28;12.23;;;2.30;;
68985;SDS011;56035;37.534;-122.308;2023-03-01T08:45:55;9.30;;;2.15;;
68985;SDS011;56035;37.534;-122.308;2023-03-01T08:48:21;9.70;;;1.85;;
68985;SDS011;56035;37.534;-122.308;2023-03-01T08:50:47;10.73;;;2.25;;
68985;SDS011;56035;37.534;-122.308;2023-03-01T08:53:13;8.15;;;2.78;;
68985;SDS011;56035;37.534;-122.308;2023-03-01T08:55:40;15.98;;;5.40;;
68985;SDS011;56035;37.534;-122.308;2023-03-01T08:58:06;9.63;;;3.03;;
68985;SDS011;56035;37.534;-122.308;2023-03-01T09:00:32;9.98;;;2.65;;
68985;SDS011;56035;37.534;-122.308;2023-03-01T09:03:00;16.30;;;6.23;;
68985;SDS011;56035;37.534;-122.308;2023-03-01T09:05:26;15.50;;;3.40;;
68985;SDS011;56035;37.534;-122.308;2023-03-01T09:07:52;20.58;;;6.63;;
68985;SDS011;56035;37.534;-122.308;2023-03-01T09:10:19;18.33;;;3.30;;
68985;SDS011;56035;37.534;-122.308;2023-03-01T09:12:45;14.10;;;2.20;;
68985;SDS011;56035;37.534;-122.308;2023-03-01T09:15:11;12.68;;;2.10;;
68985;SDS011;56035;37.534;-122.308;2023-03-01T09:17:37;11.77;;;2.28;;
68985;SDS011;56035;37.534;-122.308;2023-03-01T09:20:04;12.60;;;2.20;;
68985;SDS011;56035;37.534;-122.308;2023-03-01T09:22:32;9.07;;;1.90;;
68985;SDS011;56035;37.534;-122.308;2023-03-01T09:25:00;11.10;;;2.20;;
68985;SDS011;56035;37.534;-122.308;2023-03-01T09:27:26;11.45;;;1.60;;
68985;SDS011;56035;37.534;-122.308;2023-03-01T09:29:52;12.35;;;1.95;;
68985;SDS011;56035;37.534;-122.308;2023-03-01T09:32:21;8.37;;;1.70;;
68985;SDS011;56035;37.534;-122.308;2023-03-01T09:34:47;7.60;;;1.17;;
68985;SDS011;56035;37.534;-122.308;2023-03-01T09:37:26;10.57;;;1.60;;
68985;SDS011;56035;37.534;-122.308;2023-03-01T09:39:52;10.40;;;1.70;;
68985;SDS011;56035;37.534;-122.308;2023-03-01T09:42:18;12.10;;;1.85;;
68985;SDS011;56035;37.534;-122.308;2023-03-01T09:47:33;14.07;;;2.20;;
68985;SDS011;56035;37.534;-122.308;2023-03-01T09:50:11;12.27;;;1.93;;
68985;SDS011;56035;37.534;-122.308;2023-03-01T09:55:26;10.07;;;1.93;;
68985;SDS011;56035;37.534;-122.308;2023-03-01T09:58:00;8.67;;;1.87;;
68985;SDS011;56035;37.534;-122.308;2023-03-01T10:00:49;11.43;;;1.67;;
68985;SDS011;56035;37.534;-122.308;2023-03-01T10:08:50;10.17;;;1.67;;
68985;SDS011;56035;37.534;-122.308;2023-03-01T10:11:25;12.30;;;1.83;;
68985;SDS011;56035;37.534;-122.308;2023-03-01T10:14:01;11.73;;;1.63;;
68985;SDS011;56035;37.534;-122.308;2023-03-01T10:16:38;18.17;;;1.80;;
68985;SDS011;56035;37.534;-122.308;2023-03-01T10:19:12;13.53;;;1.70;;
68985;SDS011;56035;37.534;-122.308;2023-03-01T10:21:46;11.07;;;1.77;;
68985;SDS011;56035;37.534;-122.308;2023-03-01T10:24:14;9.43;;;1.40;;
68985;SDS011;56035;37.534;-122.308;2023-03-01T10:26:50;8.33;;;1.30;;
68985;SDS011;56035;37.534;-122.308;2023-03-01T10:29:27;11.55;;;1.65;;
68985;SDS011;56035;37.534;-122.308;2023-03-01T10:32:00;10.07;;;1.20;;
68985;SDS011;56035;37.534;-122.308;2023-03-01T10:34:32;8.47;;;1.53;;
68985;SDS011;56035;37.534;-122.308;2023-03-01T10:37:10;7.97;;;1.20;;
68985;SDS011;56035;37.534;-122.308;2023-03-01T10:42:35;8.10;;;1.67;;
68985;SDS011;56035;37.534;-122.308;2023-03-01T10:48:08;6.03;;;1.60;;
68985;SDS011;56035;37.534;-122.308;2023-03-01T10:50:37;7.27;;;1.37;;
68985;SDS011;56035;37.534;-122.308;2023-03-01T10:53:10;13.47;;;2.43;;
68985;SDS011;56035;37.534;-122.308;2023-03-01T10:55:49;7.57;;;1.30;;
68985;SDS011;56035;37.534;-122.308;2023-03-01T10:58:23;11.47;;;1.50;;
68985;SDS011;56035;37.534;-122.308;2023-03-01T11:00:51;9.48;;;1.63;;
68985;SDS011;56035;37.534;-122.308;2023-03-01T11:03:23;10.67;;;1.17;;
68985;SDS011;56035;37.534;-122.308;2023-03-01T11:05:59;7.93;;;1.57;;
68985;SDS011;56035;37.534;-122.308;2023-03-01T11:11:18;10.40;;;1.53;;
68985;SDS011;56035;37.534;-122.308;2023-03-01T11:16:47;10.23;;;1.20;;
68985;SDS011;56035;37.534;-122.308;2023-03-01T11:19:16;10.93;;;1.30;;
68985;SDS011;56035;37.534;-122.308;2023-03-01T11:22:00;9.03;;;1.40;;
68985;SDS011;56035;37.534;-122.308;2023-03-01T11:24:49;7.67;;;1.10;;
68985;SDS011;56035;37.534;-122.308;2023-03-01T11:30:35;7.77;;;1.53;;
68985;SDS011;56035;37.534;-122.308;2023-03-01T11:36:01;8.67;;;1.23;;
68985;SDS011;56035;37.534;-122.308;2023-03-01T11:38:34;9.53;;;1.40;;
68985;SDS011;56035;37.534;-122.308;2023-03-01T11:41:35;8.53;;;1.10;;
68985;SDS011;56035;37.534;-122.308;2023-03-01T11:46:47;8.27;;;1.57;;
68985;SDS011;56035;37.534;-122.308;2023-03-01T11:54:33;8.17;;;1.93;;
68985;SDS011;56035;37.534;-122.308;2023-03-01T11:57:05;9.57;;;1.23;;
68985;SDS011;56035;37.534;-122.308;2023-03-01T12:02:27;10.83;;;1.83;;
68985;SDS011;56035;37.534;-122.308;2023-03-01T12:11:12;11.37;;;1.50;;
68985;SDS011;56035;37.534;-122.308;2023-03-01T12:13:58;10.33;;;1.40;;
68985;SDS011;56035;37.534;-122.308;2023-03-01T12:19:39;8.30;;;1.50;;
68985;SDS011;56035;37.534;-122.308;2023-03-01T12:22:31;6.10;;;1.07;;
68985;SDS011;56035;37.534;-122.308;2023-03-01T12:33:30;8.77;;;1.20;;
68985;SDS011;56035;37.534;-122.308;2023-03-01T12:39:03;10.57;;;1.67;;
68985;SDS011;56035;37.534;-122.308;2023-03-01T12:47:42;17.23;;;2.30;;
68985;SDS011;56035;37.534;-122.308;2023-03-01T12:50:17;7.87;;;1.10;;
68985;SDS011;56035;37.534;-122.308;2023-03-01T12:52:56;7.70;;;1.43;;
68985;SDS011;56035;37.534;-122.308;2023-03-01T13:06:12;7.40;;;1.53;;
68985;SDS011;56035;37.534;-122.308;2023-03-01T13:11:17;9.47;;;1.50;;
68985;SDS011;56035;37.534;-122.308;2023-03-01T13:13:48;8.67;;;1.27;;
68985;SDS011;56035;37.534;-122.308;2023-03-01T13:16:58;8.10;;;1.30;;
68985;SDS011;56035;37.534;-122.308;2023-03-01T13:19:15;15.00;;;1.47;;
68985;SDS011;56035;37.534;-122.308;2023-03-01T13:21:46;8.73;;;1.60;;
68985;SDS011;56035;37.534;-122.308;2023-03-01T13:27:41;8.63;;;1.60;;
68985;SDS011;56035;37.534;-122.308;2023-03-01T13:29:58;8.90;;;1.50;;
68985;SDS011;56035;37.534;-122.308;2023-03-01T13:32:29;5.67;;;1.50;;
68985;SDS011;56035;37.534;-122.308;2023-03-01T13:37:44;5.30;;;1.17;;
68985;SDS011;56035;37.534;-122.308;2023-03-01T13:42:45;9.43;;;1.30;;
68985;SDS011;56035;37.534;-122.308;2023-03-01T13:45:17;10.17;;;1.30;;
68985;SDS011;56035;37.534;-122.308;2023-03-01T13:48:24;6.13;;;0.85;;
68985;SDS011;56035;37.534;-122.308;2023-03-01T13:51:13;6.97;;;1.00;;
68985;SDS011;56035;37.534;-122.308;2023-03-01T13:53:44;6.25;;;1.48;;
68985;SDS011;56035;37.534;-122.308;2023-03-01T13:56:15;4.67;;;0.83;;
68985;SDS011;56035;37.534;-122.308;2023-03-01T13:58:59;5.18;;;0.90;;
68985;SDS011;56035;37.534;-122.308;2023-03-01T14:01:33;6.17;;;1.17;;
68985;SDS011;56035;37.534;-122.308;2023-03-01T14:04:01;3.13;;;1.00;;
68985;SDS011;56035;37.534;-122.308;2023-03-01T14:06:30;3.47;;;0.70;;
68985;SDS011;56035;37.534;-122.308;2023-03-01T14:09:05;5.20;;;1.33;;
68985;SDS011;56035;37.534;-122.308;2023-03-01T14:14:42;8.20;;;0.90;;
68985;SDS011;56035;37.534;-122.308;2023-03-01T14:20:01;8.53;;;1.00;;
68985;SDS011;56035;37.534;-122.308;2023-03-01T14:22:35;7.83;;;1.47;;
68985;SDS011;56035;37.534;-122.308;2023-03-01T14:25:03;9.33;;;1.03;;
68985;SDS011;56035;37.534;-122.308;2023-03-01T14:27:42;4.70;;;1.27;;
68985;SDS011;56035;37.534;-122.308;2023-03-01T14:30:22;2.83;;;0.90;;
68985;SDS011;56035;37.534;-122.308;2023-03-01T14:32:54;5.03;;;1.03;;
68985;SDS011;56035;37.534;-122.308;2023-03-01T14:35:29;6.57;;;1.00;;
68985;SDS011;56035;37.534;-122.308;2023-03-01T14:37:57;5.77;;;1.37;;
68985;SDS011;56035;37.534;-122.308;2023-03-01T14:40:27;12.70;;;1.55;;
68985;SDS011;56035;37.534;-122.308;2023-03-01T14:42:58;5.60;;;1.17;;
68985;SDS011;56035;37.534;-122.308;2023-03-01T14:45:27;4.77;;;0.97;;
68985;SDS011;56035;37.534;-122.308;2023-03-01T14:47:59;5.80;;;1.50;;
68985;SDS011;56035;37.534;-122.308;2023-03-01T14:50:31;8.17;;;1.23;;
68985;SDS011;56035;37.534;-122.308;2023-03-01T14:52:59;5.73;;;1.20;;
68985;SDS011;56035;37.534;-122.308;2023-03-01T14:55:30;10.83;;;1.87;;
68985;SDS011;56035;37.534;-122.308;2023-03-01T14:58:02;6.10;;;1.50;;
68985;SDS011;56035;37.534;-122.308;2023-03-01T15:00:35;8.13;;;1.43;;
68985;SDS011;56035;37.534;-122.308;2023-03-01T15:03:08;5.68;;;1.75;;
68985;SDS011;56035;37.534;-122.308;2023-03-01T15:05:39;5.37;;;1.33;;
68985;SDS011;56035;37.534;-122.308;2023-03-01T15:08:19;7.87;;;1.30;;
68985;SDS011;56035;37.534;-122.308;2023-03-01T15:10:59;8.30;;;1.40;;
68985;SDS011;56035;37.534;-122.308;2023-03-01T15:13:32;8.20;;;2.07;;
68985;SDS011;56035;37.534;-122.308;2023-03-01T15:18:36;8.20;;;1.40;;
68985;SDS011;56035;37.534;-122.308;2023-03-01T15:21:08;10.43;;;2.37;;
68985;SDS011;56035;37.534;-122.308;2023-03-01T15:23:40;5.85;;;1.17;;
68985;SDS011;56035;37.534;-122.308;2023-03-01T15:26:17;8.75;;;2.05;;
68985;SDS011;56035;37.534;-122.308;2023-03-01T15:28:50;7.60;;;1.50;;
68985;SDS011;56035;37.534;-122.308;2023-03-01T15:31:21;10.33;;;1.27;;
68985;SDS011;56035;37.534;-122.308;2023-03-01T15:33:50;7.93;;;1.63;;
68985;SDS011;56035;37.534;-122.308;2023-03-01T15:39:23;7.83;;;1.60;;
68985;SDS011;56035;37.534;-122.308;2023-03-01T15:42:44;11.57;;;1.90;;
68985;SDS011;56035;37.534;-122.308;2023-03-01T15:45:07;10.50;;;2.13;;
68985;SDS011;56035;37.534;-122.308;2023-03-01T15:47:52;4.45;;;0.93;;
68985;SDS011;56035;37.534;-122.308;2023-03-01T15:50:56;8.17;;;1.43;;
68985;SDS011;56035;37.534;-122.308;2023-03-01T15:53:22;6.23;;;1.90;;
68985;SDS011;56035;37.534;-122.308;2023-03-01T15:55:49;11.68;;;1.60;;
68985;SDS011;56035;37.534;-122.308;2023-03-01T15:58:17;8.70;;;2.05;;
68985;SDS011;56035;37.534;-122.308;2023-03-01T16:00:46;7.93;;;1.43;;
68985;SDS011;56035;37.534;-122.308;2023-03-01T16:03:14;12.83;;;1.40;;
68985;SDS011;56035;37.534;-122.308;2023-03-01T16:05:47;7.40;;;1.20;;
68985;SDS011;56035;37.534;-122.308;2023-03-01T16:08:16;7.27;;;1.60;;
68985;SDS011;56035;37.534;-122.308;2023-03-01T16:10:44;9.50;;;1.70;;
68985;SDS011;56035;37.534;-122.308;2023-03-01T16:13:13;8.52;;;1.45;;
68985;SDS011;56035;37.534;-122.308;2023-03-01T16:15:39;7.90;;;1.50;;
68985;SDS011;56035;37.534;-122.308;2023-03-01T16:18:07;4.90;;;1.40;;
68985;SDS011;56035;37.534;-122.308;2023-03-01T16:20:35;8.77;;;1.67;;